Time;durP1;ratioP1;P1;durP2;ratioP2;P2;SDS_P1;SDS_P2;PMS_P1;PMS_P2;Temp;Humidity;BMP_temperature;BMP_pressure;BME280_temperature;BME280_humidity;BME280_pressure;Samples;Min_cycle;Max_cycle;Signal;HPM_P1;HPM_P2
2022/12/15 00:38:42;;;;;;;18.73;11.52;;;-1.80;99.90;;;;;;5013268;28;20221;-66
2022/12/15 00:41:10;;;;;;;16.67;9.60;;;-1.80;99.90;;;;;;5012562;28;20256;-64
2022/12/15 00:43:37;;;;;;;12.77;8.55;;;-1.80;99.90;;;;;;5012872;28;20214;-65
2022/12/15 00:48:49;;;;;;;13.65;9.15;;;-1.80;99.90;;;;;;5012613;28;20221;-64
2022/12/15 00:51:17;;;;;;;17.63;9.05;;;-1.80;99.90;;;;;;5012275;28;20213;-65
2022/12/15 01:21:11;;;;;;;16.38;9.23;;;-1.70;99.90;;;;;;5011369;28;20200;-66
2022/12/15 01:23:40;;;;;;;18.13;9.07;;;-1.70;99.90;;;;;;5011231;28;20203;-65
2022/12/15 01:26:07;;;;;;;19.08;8.38;;;-1.70;99.90;;;;;;5011855;28;20202;-66
2022/12/15 01:28:34;;;;;;;17.75;10.40;;;-1.70;99.90;;;;;;5011773;28;20740;-65
2022/12/15 01:31:01;;;;;;;19.77;10.00;;;-1.70;99.90;;;;;;5011087;28;20207;-66
2022/12/15 01:33:28;;;;;;;19.00;9.13;;;-1.80;99.90;;;;;;5011830;28;20214;-66
2022/12/15 01:35:58;;;;;;;17.42;8.48;;;-1.80;99.90;;;;;;5011450;28;20591;-65
2022/12/15 01:38:25;;;;;;;16.08;9.02;;;-1.80;99.90;;;;;;5011730;28;20218;-66
2022/12/15 01:40:56;;;;;;;19.70;9.95;;;-1.70;99.90;;;;;;5010989;28;20203;-65
2022/12/15 01:43:25;;;;;;;14.52;8.82;;;-1.70;99.90;;;;;;5011770;28;20214;-65
2022/12/15 01:45:56;;;;;;;17.70;10.77;;;-1.70;99.90;;;;;;4994066;28;20774;-64
2022/12/15 01:48:28;;;;;;;19.23;9.68;;;-1.70;99.90;;;;;;4992124;28;20218;-65
2022/12/15 01:51:01;;;;;;;16.40;8.50;;;-1.70;99.90;;;;;;4991046;28;20207;-65
2022/12/15 01:53:32;;;;;;;16.92;9.55;;;-1.70;99.90;;;;;;4992247;28;20203;-65
2022/12/15 01:56:01;;;;;;;14.75;8.52;;;-1.70;99.90;;;;;;4991451;28;20227;-64
2022/12/15 01:58:28;;;;;;;13.88;9.45;;;-1.60;99.90;;;;;;4991822;28;20231;-67
2022/12/15 02:00:54;;;;;;;17.67;9.25;;;-1.60;99.90;;;;;;4990846;28;20204;-65
2022/12/15 02:03:22;;;;;;;16.10;9.55;;;-1.60;99.90;;;;;;4991944;28;20217;-65
2022/12/15 02:05:49;;;;;;;20.98;11.18;;;-1.60;99.90;;;;;;4991486;28;20203;-66
2022/12/15 02:08:16;;;;;;;22.10;10.10;;;-1.60;99.90;;;;;;4991620;28;20742;-65
2022/12/15 02:10:57;;;;;;;19.15;9.77;;;-1.60;99.90;;;;;;4990963;28;20671;-66
2022/12/15 02:13:34;;;;;;;21.25;11.68;;;-1.60;99.90;;;;;;4991783;28;20212;-65
2022/12/15 02:16:13;;;;;;;15.27;9.43;;;-1.60;99.90;;;;;;4991300;28;20226;-65
2022/12/15 02:18:49;;;;;;;18.85;11.07;;;-1.60;99.90;;;;;;4991592;28;20610;-65
2022/12/15 02:21:19;;;;;;;20.42;11.38;;;-1.60;99.90;;;;;;4991034;28;20199;-66
2022/12/15 02:24:24;;;;;;;18.40;9.57;;;-1.60;99.90;;;;;;4991462;28;20212;-65
2022/12/15 02:27:21;;;;;;;20.52;10.35;;;-1.60;99.90;;;;;;4991214;28;20238;-65
2022/12/15 02:30:19;;;;;;;17.10;10.90;;;-1.60;99.90;;;;;;4991436;28;20211;-65
2022/12/15 02:32:55;;;;;;;14.75;9.45;;;-1.60;99.90;;;;;;4991333;28;20286;-64
2022/12/15 02:35:29;;;;;;;14.00;9.73;;;-1.60;99.90;;;;;;4991332;28;20228;-65
2022/12/15 02:37:56;;;;;;;21.10;11.82;;;-1.60;99.90;;;;;;4991080;28;20230;-64
2022/12/15 02:40:23;;;;;;;15.45;10.77;;;-1.60;99.90;;;;;;4990762;28;20218;-65
2022/12/15 02:42:53;;;;;;;22.00;11.23;;;-1.60;99.90;;;;;;4991264;28;20590;-64
2022/12/15 02:45:30;;;;;;;18.05;10.77;;;-1.60;99.90;;;;;;4991333;28;20205;-65
2022/12/15 02:48:10;;;;;;;19.10;11.10;;;-1.60;99.90;;;;;;4991053;28;20223;-65
2022/12/15 02:50:54;;;;;;;16.73;10.63;;;-1.70;99.90;;;;;;4990683;28;20203;-65
2022/12/15 02:53:38;;;;;;;16.98;9.75;;;-1.60;99.90;;;;;;4991344;28;20214;-64
2022/12/15 02:56:12;;;;;;;19.85;10.63;;;-1.60;99.90;;;;;;4990891;28;20227;-65
2022/12/15 02:58:46;;;;;;;19.00;10.98;;;-1.60;99.90;;;;;;4991357;28;20234;-64
2022/12/15 03:01:20;;;;;;;14.18;9.52;;;-1.60;99.90;;;;;;4990111;28;20211;-65
2022/12/15 03:03:50;;;;;;;20.20;11.50;;;-1.60;99.90;;;;;;4991524;28;20199;-64
2022/12/15 03:06:18;;;;;;;16.60;11.80;;;-1.60;99.90;;;;;;4992896;28;20205;-65
2022/12/15 03:08:45;;;;;;;20.08;12.32;;;-1.60;99.90;;;;;;4993135;28;20219;-64
2022/12/15 03:11:11;;;;;;;21.13;11.68;;;-1.60;99.90;;;;;;4992753;28;20199;-66
2022/12/15 03:13:38;;;;;;;18.92;11.27;;;-1.60;99.90;;;;;;4992064;28;20207;-64
2022/12/15 03:16:05;;;;;;;23.38;11.35;;;-1.70;99.90;;;;;;4991475;28;20599;-64
2022/12/15 03:18:33;;;;;;;20.98;10.35;;;-1.70;99.90;;;;;;4990896;28;20236;-65
2022/12/15 03:21:00;;;;;;;21.48;11.25;;;-1.70;99.90;;;;;;4990187;28;20210;-65
2022/12/15 03:23:27;;;;;;;18.50;10.88;;;-1.70;99.90;;;;;;4991052;28;20203;-65
2022/12/15 03:25:54;;;;;;;30.67;12.68;;;-1.70;99.90;;;;;;4990740;28;20207;-65
2022/12/15 03:28:21;;;;;;;20.95;12.15;;;-1.70;99.90;;;;;;4990833;28;20231;-65
2022/12/15 03:30:49;;;;;;;18.27;10.32;;;-1.70;99.90;;;;;;4990159;28;20203;-65
2022/12/15 03:33:16;;;;;;;18.23;10.60;;;-1.70;99.90;;;;;;4990804;28;20623;-65
2022/12/15 03:35:44;;;;;;;19.73;10.05;;;-1.70;99.90;;;;;;4990732;28;20223;-65
2022/12/15 03:38:11;;;;;;;21.52;10.98;;;-1.70;99.90;;;;;;4990547;28;20232;-65
2022/12/15 03:40:38;;;;;;;17.60;10.43;;;-1.70;99.90;;;;;;4990201;28;20693;-65
2022/12/15 03:43:04;;;;;;;21.20;10.80;;;-1.70;99.90;;;;;;4990531;28;20211;-64
2022/12/15 03:45:31;;;;;;;22.73;10.75;;;-1.70;99.90;;;;;;5000413;28;20218;-66
2022/12/15 03:47:58;;;;;;;21.33;11.50;;;-1.70;99.90;;;;;;5013630;28;20757;-66
2022/12/15 03:50:27;;;;;;;21.40;11.95;;;-1.70;99.90;;;;;;5012316;28;20695;-66
2022/12/15 03:52:56;;;;;;;19.15;10.70;;;-1.70;99.90;;;;;;5013474;28;20404;-65
2022/12/15 03:55:23;;;;;;;24.92;10.80;;;-1.60;99.90;;;;;;5013755;28;20228;-66
2022/12/15 03:57:51;;;;;;;19.77;10.10;;;-1.60;99.90;;;;;;5013442;28;20218;-66
2022/12/15 04:00:20;;;;;;;20.83;10.75;;;-1.60;99.90;;;;;;5013106;28;20203;-65
2022/12/15 04:02:47;;;;;;;20.65;12.13;;;-1.60;99.90;;;;;;5013197;28;20665;-65
2022/12/15 04:05:17;;;;;;;24.40;12.35;;;-1.60;99.90;;;;;;5013569;28;20203;-68
2022/12/15 04:07:43;;;;;;;19.65;12.45;;;-1.60;99.90;;;;;;5013278;28;20230;-64
2022/12/15 04:10:12;;;;;;;21.38;11.40;;;-1.60;99.90;;;;;;5013311;28;20226;-65
2022/12/15 04:12:39;;;;;;;23.52;12.73;;;-1.60;99.90;;;;;;5013208;28;20211;-65
2022/12/15 04:15:08;;;;;;;19.27;10.90;;;-1.60;99.90;;;;;;5013032;28;20637;-64
2022/12/15 04:17:35;;;;;;;21.70;11.32;;;-1.60;99.90;;;;;;5013107;28;20417;-65
2022/12/15 04:20:10;;;;;;;22.92;10.68;;;-1.60;99.90;;;;;;5012949;28;20203;-65
2022/12/15 04:22:38;;;;;;;25.33;12.80;;;-1.60;99.90;;;;;;5012943;28;20229;-64
2022/12/15 05:33:52;;;;;;;20.13;11.45;;;-1.60;99.90;;;;;;5136639;23;20859;-66
2022/12/15 05:36:19;;;;;;;22.52;11.73;;;-1.60;99.90;;;;;;4972067;28;20234;-66
2022/12/15 05:38:48;;;;;;;19.30;12.55;;;-1.60;99.90;;;;;;4973004;28;20228;-66
2022/12/15 05:41:15;;;;;;;21.52;10.38;;;-1.60;99.90;;;;;;4972032;28;20204;-66
2022/12/15 05:43:41;;;;;;;20.30;11.45;;;-1.60;99.90;;;;;;4973098;28;20204;-66
2022/12/15 05:46:08;;;;;;;20.15;10.38;;;-1.50;99.90;;;;;;4972515;28;20211;-66
2022/12/15 05:48:35;;;;;;;21.27;11.38;;;-1.60;99.90;;;;;;4972893;28;20231;-67
2022/12/15 05:51:05;;;;;;;19.55;10.52;;;-1.60;99.90;;;;;;4972109;28;20587;-66
2022/12/15 05:53:32;;;;;;;16.63;11.07;;;-1.60;99.90;;;;;;4972594;28;20573;-67
2022/12/15 05:56:01;;;;;;;19.92;10.73;;;-1.60;99.90;;;;;;4972460;28;20598;-66
2022/12/15 05:58:29;;;;;;;23.65;11.00;;;-1.60;99.90;;;;;;4972065;28;20231;-67
2022/12/15 06:01:02;;;;;;;19.38;11.52;;;-1.60;99.90;;;;;;4971698;28;20215;-66
2022/12/15 06:03:28;;;;;;;18.33;11.57;;;-1.60;99.90;;;;;;4972341;28;20238;-67
2022/12/15 06:05:55;;;;;;;23.63;12.05;;;-1.70;99.90;;;;;;4971717;28;20200;-68
2022/12/15 06:08:23;;;;;;;21.08;10.43;;;-1.70;99.90;;;;;;4971384;28;20223;-67
2022/12/15 06:10:52;;;;;;;18.25;10.52;;;-1.70;99.90;;;;;;4971597;28;20274;-67
2022/12/15 06:13:19;;;;;;;21.88;11.73;;;-1.70;99.90;;;;;;4971708;28;20208;-67
2022/12/15 06:15:55;;;;;;;17.92;10.40;;;-1.70;99.90;;;;;;4972087;28;20223;-67
2022/12/15 06:18:22;;;;;;;16.42;10.02;;;-1.70;99.90;;;;;;4971645;28;20306;-67
2022/12/15 06:20:49;;;;;;;23.20;12.20;;;-1.70;99.90;;;;;;4971458;28;20675;-69
2022/12/15 06:23:16;;;;;;;18.35;9.98;;;-1.70;99.90;;;;;;4971395;28;20205;-70
2022/12/15 06:25:44;;;;;;;20.48;11.95;;;-1.70;99.90;;;;;;4971944;28;20219;-69
2022/12/15 06:28:10;;;;;;;26.48;11.10;;;-1.70;99.90;;;;;;4971665;28;20603;-67
2022/12/15 06:30:37;;;;;;;22.77;10.90;;;-1.70;99.90;;;;;;4971381;28;20209;-68
2022/12/15 06:33:04;;;;;;;20.92;11.60;;;-1.70;99.90;;;;;;4971674;28;20304;-68
2022/12/15 06:35:31;;;;;;;27.45;13.90;;;-1.70;99.90;;;;;;4971503;28;20218;-68
2022/12/15 06:37:58;;;;;;;24.75;10.75;;;-1.70;99.90;;;;;;4966104;28;20227;-68
2022/12/15 06:40:24;;;;;;;17.15;9.00;;;-1.70;99.90;;;;;;4960915;28;20713;-68
2022/12/15 06:42:52;;;;;;;26.77;13.60;;;-1.70;99.90;;;;;;4960115;28;20193;-69
2022/12/15 06:45:19;;;;;;;22.95;12.95;;;-1.70;99.90;;;;;;4964037;28;20464;-68
2022/12/15 06:47:47;;;;;;;22.08;12.05;;;-1.70;99.90;;;;;;4952283;29;20220;-68
2022/12/15 06:50:14;;;;;;;19.40;11.48;;;-1.70;99.90;;;;;;4953963;28;20201;-67
2022/12/15 06:52:41;;;;;;;20.77;12.20;;;-1.60;99.90;;;;;;4952194;29;20209;-68
2022/12/15 06:55:08;;;;;;;24.45;11.30;;;-1.60;99.90;;;;;;4952026;28;20219;-67
2022/12/15 06:57:36;;;;;;;20.15;11.15;;;-1.60;99.90;;;;;;4952068;29;20236;-68
2022/12/15 07:00:05;;;;;;;15.82;10.10;;;-1.60;99.90;;;;;;4952275;29;20200;-68
2022/12/15 07:02:33;;;;;;;17.92;10.35;;;-1.60;99.90;;;;;;4950497;29;20216;-68
2022/12/15 07:05:00;;;;;;;21.13;9.77;;;-1.60;99.90;;;;;;4948927;29;20927;-68
2022/12/15 07:07:26;;;;;;;18.27;10.32;;;-1.60;99.90;;;;;;4948521;28;20223;-68
2022/12/15 07:09:53;;;;;;;19.30;12.48;;;-1.60;99.90;;;;;;4948859;29;20211;-68
2022/12/15 07:12:20;;;;;;;20.17;12.27;;;-1.60;99.90;;;;;;4948139;29;20707;-68
2022/12/15 07:14:48;;;;;;;21.23;12.02;;;-1.60;99.90;;;;;;4950234;29;20213;-68
2022/12/15 07:17:16;;;;;;;13.77;8.80;;;-1.60;99.90;;;;;;4949461;29;20704;-68
2022/12/15 07:19:42;;;;;;;21.30;11.40;;;-1.60;99.90;;;;;;4952377;28;20207;-68
2022/12/15 07:22:09;;;;;;;23.17;12.43;;;-1.60;99.90;;;;;;4954950;28;20731;-68
2022/12/15 07:24:36;;;;;;;24.55;11.68;;;-1.60;99.90;;;;;;4956329;29;20557;-68
2022/12/15 07:27:03;;;;;;;21.15;11.50;;;-1.60;99.90;;;;;;4955990;29;20220;-68
2022/12/15 07:29:29;;;;;;;30.95;12.25;;;-1.60;99.90;;;;;;4955874;29;20204;-68
2022/12/15 07:31:56;;;;;;;16.27;10.30;;;-1.60;99.90;;;;;;4955629;29;20584;-68
2022/12/15 07:34:24;;;;;;;16.65;9.18;;;-1.60;99.90;;;;;;4955734;28;20219;-68
2022/12/15 07:36:51;;;;;;;21.55;10.57;;;-1.50;99.90;;;;;;4955996;29;20235;-68
2022/12/15 07:39:17;;;;;;;22.55;10.82;;;-1.50;99.90;;;;;;4955640;29;20208;-68
2022/12/15 07:41:44;;;;;;;21.88;11.30;;;-1.50;99.90;;;;;;4955578;28;20284;-67
2022/12/15 07:44:11;;;;;;;21.40;11.13;;;-1.50;99.90;;;;;;4955704;29;20205;-68
2022/12/15 07:46:37;;;;;;;17.20;8.93;;;-1.40;99.90;;;;;;4956236;29;20201;-68
2022/12/15 07:49:04;;;;;;;16.00;9.65;;;-1.40;99.90;;;;;;4955734;29;20594;-68
2022/12/15 07:51:32;;;;;;;20.02;11.65;;;-1.30;99.90;;;;;;4955193;29;20208;-68
2022/12/15 07:53:59;;;;;;;25.15;13.68;;;-1.20;99.90;;;;;;4955656;29;20209;-67
2022/12/15 07:56:26;;;;;;;20.45;11.68;;;-1.20;99.90;;;;;;4955270;28;20942;-68
2022/12/15 07:58:53;;;;;;;19.17;10.50;;;-1.20;99.90;;;;;;4955586;29;20208;-69
2022/12/15 08:01:19;;;;;;;19.60;11.10;;;-1.20;99.90;;;;;;4954716;29;20696;-68
2022/12/15 08:03:48;;;;;;;23.20;11.75;;;-1.20;99.90;;;;;;4955247;29;20220;-68
2022/12/15 08:06:15;;;;;;;17.17;9.82;;;-1.20;99.90;;;;;;4955061;29;20579;-68
2022/12/15 08:08:44;;;;;;;21.17;12.70;;;-1.20;99.90;;;;;;4963798;28;20294;-67
2022/12/15 08:11:13;;;;;;;18.60;12.07;;;-1.20;99.90;;;;;;4965872;28;20205;-68
2022/12/15 08:13:41;;;;;;;20.95;11.32;;;-1.20;99.90;;;;;;4974347;28;20204;-68
2022/12/15 08:16:08;;;;;;;19.73;11.73;;;-1.20;99.90;;;;;;4973597;28;20208;-68
2022/12/15 08:18:34;;;;;;;19.38;11.25;;;-1.10;99.90;;;;;;4966843;28;20229;-68
2022/12/15 08:21:03;;;;;;;20.13;10.60;;;-1.10;99.90;;;;;;4953662;28;20205;-68
2022/12/15 08:23:30;;;;;;;20.00;10.68;;;-1.10;99.90;;;;;;4954241;28;20272;-68
2022/12/15 08:26:03;;;;;;;22.10;13.02;;;-1.00;99.90;;;;;;4954546;28;20220;-68
2022/12/15 08:28:31;;;;;;;17.98;11.75;;;-1.00;99.90;;;;;;4954311;29;20224;-68
2022/12/15 08:31:02;;;;;;;18.80;11.10;;;-0.90;99.90;;;;;;4953473;28;20212;-69
2022/12/15 08:33:29;;;;;;;21.48;10.93;;;-0.90;99.90;;;;;;4953384;28;20233;-69
2022/12/15 08:35:58;;;;;;;19.58;10.30;;;-0.90;99.90;;;;;;4954638;28;20212;-68
2022/12/15 08:38:24;;;;;;;20.77;10.57;;;-0.90;99.90;;;;;;4953495;29;20724;-68
2022/12/15 08:40:51;;;;;;;19.17;10.80;;;-0.90;99.90;;;;;;4953847;29;20240;-68
2022/12/15 08:43:19;;;;;;;21.08;12.45;;;-0.80;99.90;;;;;;4954096;28;20216;-68
2022/12/15 08:45:46;;;;;;;19.25;12.63;;;-0.80;99.90;;;;;;4954013;29;20224;-68
2022/12/15 08:48:13;;;;;;;17.95;10.80;;;-0.70;99.90;;;;;;4954066;28;20240;-68
2022/12/15 08:50:44;;;;;;;19.42;10.98;;;-0.70;99.90;;;;;;4953625;29;20676;-68
2022/12/15 08:53:11;;;;;;;21.67;11.02;;;-0.60;99.90;;;;;;4953569;29;20633;-68
2022/12/15 08:55:38;;;;;;;18.55;10.80;;;-0.60;99.90;;;;;;4954064;28;20228;-68
2022/12/15 08:58:05;;;;;;;22.05;11.75;;;-0.50;99.90;;;;;;4953320;29;20232;-67
2022/12/15 09:00:33;;;;;;;17.80;10.45;;;-0.50;99.90;;;;;;4953121;29;20215;-68
2022/12/15 09:03:00;;;;;;;19.65;11.50;;;-0.50;99.90;;;;;;4953984;29;20299;-68
2022/12/15 09:05:27;;;;;;;18.65;10.52;;;-0.40;99.90;;;;;;4953537;29;20205;-68
2022/12/15 09:07:55;;;;;;;19.63;9.70;;;-0.40;99.90;;;;;;4953467;29;20221;-68
2022/12/15 09:10:22;;;;;;;21.90;12.40;;;-0.40;99.90;;;;;;4952629;28;20201;-67
2022/12/15 09:12:50;;;;;;;20.83;12.57;;;-0.30;99.90;;;;;;4954644;28;20208;-68
2022/12/15 09:15:17;;;;;;;22.73;14.35;;;-0.20;99.90;;;;;;4953211;28;20255;-68
2022/12/15 09:17:46;;;;;;;26.00;12.10;;;-0.20;99.90;;;;;;4953398;29;20284;-68
2022/12/15 09:20:14;;;;;;;24.65;12.15;;;-0.10;99.90;;;;;;4952993;29;20209;-67
2022/12/15 09:22:41;;;;;;;22.63;12.07;;;0.10;99.90;;;;;;4952555;29;20200;-68
2022/12/15 09:25:09;;;;;;;20.13;11.95;;;0.20;99.90;;;;;;4967114;28;20248;-68
2022/12/15 09:27:36;;;;;;;25.77;13.07;;;0.30;99.90;;;;;;4972256;28;20220;-68
2022/12/15 09:30:03;;;;;;;21.95;13.98;;;0.50;99.90;;;;;;4972156;28;20204;-68
2022/12/15 09:32:31;;;;;;;25.35;13.75;;;0.80;99.90;;;;;;4971984;28;20222;-68
2022/12/15 09:34:59;;;;;;;18.88;13.63;;;1.10;99.90;;;;;;4973170;28;20204;-68
2022/12/15 09:37:27;;;;;;;21.45;11.43;;;1.30;99.90;;;;;;4972221;28;20223;-68
2022/12/15 09:39:54;;;;;;;21.83;15.15;;;1.50;99.90;;;;;;4972586;28;20567;-68
2022/12/15 09:42:24;;;;;;;21.60;11.68;;;1.80;99.90;;;;;;4971949;28;20204;-68
2022/12/15 09:45:01;;;;;;;24.00;13.52;;;2.00;99.90;;;;;;4971564;28;20215;-68
2022/12/15 09:47:34;;;;;;;25.05;13.23;;;2.00;99.90;;;;;;4971748;28;20231;-68
2022/12/15 09:50:05;;;;;;;21.63;11.70;;;1.80;99.90;;;;;;4972246;28;20208;-68
2022/12/15 09:52:40;;;;;;;21.17;12.38;;;1.60;99.90;;;;;;4971331;28;20217;-68
2022/12/15 09:55:19;;;;;;;25.55;11.95;;;1.30;99.90;;;;;;4972489;28;20199;-68
2022/12/15 09:57:51;;;;;;;21.98;11.82;;;1.20;99.90;;;;;;4971988;28;20246;-68
2022/12/15 10:00:21;;;;;;;18.33;11.57;;;0.90;99.90;;;;;;4973169;28;20215;-68
2022/12/15 10:03:12;;;;;;;21.40;11.80;;;0.70;99.90;;;;;;4972493;28;20211;-67
2022/12/15 10:05:52;;;;;;;25.10;11.90;;;0.60;99.90;;;;;;4969524;28;20359;-68
2022/12/15 10:08:21;;;;;;;19.23;11.75;;;0.50;99.90;;;;;;4961931;28;20453;-67
2022/12/15 10:10:57;;;;;;;24.20;13.50;;;0.40;99.90;;;;;;4970001;28;20214;-68
2022/12/15 10:13:31;;;;;;;29.13;12.43;;;0.40;99.90;;;;;;4969229;28;20224;-68
2022/12/15 10:16:01;;;;;;;20.02;11.88;;;0.40;99.90;;;;;;4971556;28;20238;-68
2022/12/15 10:18:32;;;;;;;21.92;11.80;;;0.40;99.90;;;;;;4970233;28;20315;-68
2022/12/15 10:21:03;;;;;;;28.05;12.57;;;0.40;99.90;;;;;;4970189;28;20676;-68
2022/12/15 10:23:29;;;;;;;22.70;13.45;;;0.40;99.90;;;;;;4969832;28;20680;-68
2022/12/15 10:26:00;;;;;;;21.40;10.55;;;0.40;99.90;;;;;;4971377;28;20530;-68
2022/12/15 10:29:02;;;;;;;18.55;11.05;;;0.40;99.90;;;;;;4970423;28;20220;-68
2022/12/15 10:31:35;;;;;;;18.52;10.82;;;0.40;99.90;;;;;;4969752;28;20207;-68
2022/12/15 10:34:10;;;;;;;17.55;11.70;;;0.40;99.90;;;;;;4970218;28;20226;-68
2022/12/15 10:36:43;;;;;;;23.80;12.93;;;0.40;99.90;;;;;;4969392;28;20212;-68
2022/12/15 10:39:09;;;;;;;23.80;11.43;;;0.40;99.90;;;;;;4970483;28;20654;-68
2022/12/15 10:41:36;;;;;;;24.20;12.95;;;0.50;99.90;;;;;;4970165;28;20209;-68
2022/12/15 10:44:15;;;;;;;25.23;12.88;;;0.50;99.90;;;;;;4969907;28;20637;-68
2022/12/15 10:46:45;;;;;;;20.60;11.70;;;0.50;99.90;;;;;;4970196;28;20208;-68
2022/12/15 10:49:23;;;;;;;21.20;13.93;;;0.40;99.90;;;;;;4969680;28;20260;-68
2022/12/15 10:51:56;;;;;;;22.30;11.00;;;0.50;99.90;;;;;;4969772;28;20219;-68
2022/12/15 10:54:26;;;;;;;20.65;10.50;;;0.40;99.90;;;;;;4970823;28;20705;-67
2022/12/15 10:56:55;;;;;;;17.25;11.10;;;0.30;99.90;;;;;;4975302;28;20224;-68
2022/12/15 10:59:25;;;;;;;22.20;10.00;;;0.30;99.90;;;;;;4974352;28;20434;-68
2022/12/15 11:01:52;;;;;;;20.60;10.63;;;0.30;99.90;;;;;;4975177;28;20204;-68
2022/12/15 11:04:27;;;;;;;18.00;10.60;;;0.30;99.90;;;;;;4975050;28;20698;-67
2022/12/15 11:06:59;;;;;;;17.02;11.20;;;0.40;99.90;;;;;;4974712;28;20316;-68
2022/12/15 11:09:32;;;;;;;21.67;12.73;;;0.40;99.90;;;;;;4974867;28;20208;-68
2022/12/15 11:14:45;;;;;;;18.85;11.68;;;0.50;99.90;;;;;;4975390;28;20850;-68
2022/12/15 11:17:17;;;;;;;19.42;10.88;;;0.50;99.90;;;;;;4974702;28;20798;-68
2022/12/15 11:19:50;;;;;;;18.00;12.07;;;0.50;99.90;;;;;;4974377;28;20211;-68
2022/12/15 11:22:31;;;;;;;24.70;11.82;;;0.50;99.90;;;;;;4974129;28;20206;-68
2022/12/15 11:25:02;;;;;;;22.05;10.85;;;0.50;99.90;;;;;;4974399;28;20199;-69
2022/12/15 11:27:33;;;;;;;20.85;10.48;;;0.60;99.90;;;;;;4974256;28;20228;-67
2022/12/15 11:30:10;;;;;;;23.05;10.80;;;0.60;99.90;;;;;;4974376;28;20209;-68
2022/12/15 11:32:39;;;;;;;21.38;12.60;;;0.70;99.90;;;;;;4974105;28;20223;-68
2022/12/15 11:35:12;;;;;;;20.67;11.70;;;0.70;99.90;;;;;;4973777;28;20607;-68
2022/12/15 11:37:43;;;;;;;18.90;9.43;;;0.80;99.90;;;;;;4974103;28;20255;-68
2022/12/15 11:40:34;;;;;;;24.17;13.18;;;0.80;99.90;;;;;;4973679;28;20207;-68
2022/12/15 11:48:40;;;;;;;18.50;10.98;;;0.90;99.90;;;;;;4989257;23;20318;-60
2022/12/15 11:51:14;;;;;;;23.05;11.68;;;1.00;99.90;;;;;;5007571;28;20207;-63
2022/12/15 11:54:07;;;;;;;17.48;10.55;;;1.00;99.90;;;;;;4988155;28;20225;-63
2022/12/15 11:56:39;;;;;;;21.00;12.43;;;1.00;99.90;;;;;;4976763;28;20203;-63
2022/12/15 11:59:32;;;;;;;20.77;11.98;;;1.00;99.90;;;;;;4955111;29;20225;-63
2022/12/15 12:02:23;;;;;;;18.15;11.10;;;1.00;99.90;;;;;;4954432;29;20212;-58
2022/12/15 12:05:05;;;;;;;15.77;10.50;;;1.00;99.90;;;;;;4955445;29;20202;-60
2022/12/15 12:07:41;;;;;;;26.08;12.38;;;1.00;99.90;;;;;;4954361;28;20222;-59
2022/12/15 12:10:22;;;;;;;23.70;12.77;;;1.20;99.90;;;;;;4955046;29;20560;-61
2022/12/15 12:12:53;;;;;;;22.77;12.85;;;1.20;99.90;;;;;;4955298;29;20208;-60
2022/12/15 12:15:28;;;;;;;24.40;12.23;;;1.30;99.90;;;;;;4970940;28;20652;-61
2022/12/15 12:18:01;;;;;;;21.88;13.40;;;1.30;99.90;;;;;;4973592;28;20224;-60
2022/12/15 12:20:43;;;;;;;24.27;13.50;;;1.30;99.90;;;;;;4972826;28;20201;-60
2022/12/15 12:23:17;;;;;;;23.23;12.23;;;1.40;99.90;;;;;;4973717;28;20214;-60
2022/12/15 12:25:54;;;;;;;23.58;12.07;;;1.40;99.90;;;;;;4973413;28;20200;-60
2022/12/15 12:28:27;;;;;;;23.85;12.25;;;1.40;99.90;;;;;;4973640;28;20231;-61
2022/12/15 12:30:58;;;;;;;24.60;12.70;;;1.40;99.90;;;;;;4969228;28;20686;-60
2022/12/15 12:33:39;;;;;;;23.00;13.63;;;1.40;99.90;;;;;;4973586;28;20243;-60
2022/12/15 12:36:09;;;;;;;23.10;11.98;;;1.30;99.90;;;;;;4973445;28;20203;-60
2022/12/15 12:38:44;;;;;;;20.25;12.57;;;1.30;99.90;;;;;;4973485;28;20585;-61
2022/12/15 12:41:21;;;;;;;26.08;13.65;;;1.30;99.90;;;;;;4972530;28;20586;-61
2022/12/15 12:43:51;;;;;;;23.00;10.70;;;1.40;99.90;;;;;;4973650;28;20242;-63
2022/12/15 12:46:22;;;;;;;20.48;11.18;;;1.30;99.90;;;;;;4973262;28;20623;-61
2022/12/15 12:48:54;;;;;;;19.77;12.52;;;1.30;99.90;;;;;;4973223;28;20236;-61
2022/12/15 12:51:28;;;;;;;22.58;11.43;;;1.40;99.90;;;;;;4973092;28;20295;-60
2022/12/15 12:53:56;;;;;;;18.83;11.73;;;1.40;99.90;;;;;;4972460;28;20275;-61
2022/12/15 12:56:35;;;;;;;20.60;12.30;;;1.50;99.90;;;;;;4972893;28;20215;-60
2022/12/15 12:59:07;;;;;;;16.45;10.80;;;1.60;99.90;;;;;;4972903;28;20238;-61
2022/12/15 13:01:36;;;;;;;20.42;13.00;;;1.60;99.90;;;;;;4971940;28;20410;-60
2022/12/15 13:04:10;;;;;;;28.98;10.88;;;1.60;99.90;;;;;;4973081;28;20270;-60
2022/12/15 13:06:57;;;;;;;21.80;12.40;;;1.60;99.90;;;;;;4972016;28;20205;-60
2022/12/15 13:09:36;;;;;;;20.90;11.95;;;1.50;99.90;;;;;;4972563;28;20200;-60
2022/12/15 13:12:05;;;;;;;16.60;11.25;;;1.40;99.90;;;;;;4972855;28;20216;-60
2022/12/15 13:14:45;;;;;;;17.75;11.00;;;1.30;99.90;;;;;;4973457;28;20595;-62
2022/12/15 13:17:17;;;;;;;25.30;12.68;;;1.20;99.90;;;;;;4972574;28;20238;-61
2022/12/15 13:20:22;;;;;;;23.95;12.65;;;1.20;99.90;;;;;;4970785;28;20258;-63
2022/12/15 13:22:50;;;;;;;17.85;10.52;;;1.10;99.90;;;;;;4972645;28;20204;-61
2022/12/15 13:25:34;;;;;;;20.40;12.77;;;1.10;99.90;;;;;;4972154;28;20215;-61
2022/12/15 13:28:22;;;;;;;18.55;10.25;;;1.10;99.90;;;;;;4970674;28;20303;-61
2022/12/15 13:31:12;;;;;;;24.38;12.35;;;1.00;99.90;;;;;;4969310;28;20212;-61
2022/12/15 13:33:45;;;;;;;19.58;11.13;;;1.00;99.90;;;;;;4972623;28;20209;-61
2022/12/15 13:36:11;;;;;;;19.52;11.63;;;1.10;99.90;;;;;;4972744;28;20668;-62
2022/12/15 13:38:53;;;;;;;18.45;10.48;;;1.10;99.90;;;;;;4972972;28;20236;-62
2022/12/15 13:41:23;;;;;;;19.08;9.25;;;1.00;99.90;;;;;;4971921;28;20212;-62
2022/12/15 13:43:52;;;;;;;15.70;10.30;;;0.90;99.90;;;;;;4971132;28;20251;-61
2022/12/15 13:46:24;;;;;;;16.50;9.10;;;0.70;99.90;;;;;;4972800;28;20229;-61
2022/12/15 13:49:02;;;;;;;17.55;9.00;;;0.70;99.90;;;;;;4972560;28;20240;-60
2022/12/15 13:51:33;;;;;;;15.63;9.45;;;0.70;99.90;;;;;;4971944;28;20209;-61
2022/12/15 13:54:03;;;;;;;14.85;8.40;;;0.70;99.90;;;;;;4972548;28;20208;-61
2022/12/15 13:56:48;;;;;;;17.83;10.52;;;0.70;99.90;;;;;;4972880;28;20626;-61
2022/12/15 13:59:25;;;;;;;14.50;9.75;;;0.70;99.90;;;;;;4972591;28;20633;-61
2022/12/15 14:01:53;;;;;;;17.85;10.15;;;0.70;99.90;;;;;;4971922;28;20212;-61
2022/12/15 14:04:21;;;;;;;19.35;9.25;;;0.70;99.90;;;;;;4972323;28;20215;-61
2022/12/15 14:06:50;;;;;;;13.02;8.52;;;0.60;99.90;;;;;;4972550;28;20235;-61
2022/12/15 14:09:21;;;;;;;15.38;9.10;;;0.60;99.90;;;;;;4972011;28;20578;-60
2022/12/15 14:11:49;;;;;;;16.33;9.15;;;0.60;99.90;;;;;;4971867;28;20204;-61
2022/12/15 14:14:21;;;;;;;17.90;10.88;;;0.70;99.90;;;;;;4972107;28;20216;-61
2022/12/15 14:16:52;;;;;;;17.83;9.88;;;0.70;99.90;;;;;;4972020;28;20254;-60
2022/12/15 14:19:19;;;;;;;16.20;8.48;;;0.60;99.90;;;;;;4972093;28;20228;-61
2022/12/15 14:21:50;;;;;;;17.90;10.82;;;0.50;99.90;;;;;;4971619;28;20210;-61
2022/12/15 14:24:27;;;;;;;22.70;11.90;;;0.60;99.90;;;;;;4972250;28;20204;-61
2022/12/15 14:26:54;;;;;;;25.42;13.35;;;0.50;99.90;;;;;;4971944;28;20227;-62
2022/12/15 14:29:23;;;;;;;19.63;11.40;;;0.50;99.90;;;;;;4971263;28;20211;-61
2022/12/15 14:31:53;;;;;;;34.20;14.18;;;0.50;99.90;;;;;;4971338;28;20203;-62
2022/12/15 14:34:29;;;;;;;24.35;13.63;;;0.50;99.90;;;;;;4971989;28;20204;-62
2022/12/15 14:36:58;;;;;;;24.80;13.55;;;0.50;99.90;;;;;;4971852;28;20228;-61
2022/12/15 14:39:28;;;;;;;21.42;13.23;;;0.50;99.90;;;;;;4971763;28;20228;-62
2022/12/15 14:41:57;;;;;;;16.33;10.80;;;0.50;99.90;;;;;;4971504;28;20255;-60
2022/12/15 14:44:37;;;;;;;18.67;11.70;;;0.40;99.90;;;;;;4972095;28;20216;-62
2022/12/15 14:47:06;;;;;;;17.45;10.38;;;0.40;99.90;;;;;;4971561;28;20606;-61
2022/12/15 14:49:39;;;;;;;18.27;10.20;;;0.40;99.90;;;;;;4971659;28;20218;-61
2022/12/15 14:52:07;;;;;;;19.75;11.10;;;0.30;99.90;;;;;;4971189;28;20589;-62
2022/12/15 14:54:36;;;;;;;20.83;11.90;;;0.30;99.90;;;;;;4972053;28;20582;-61
2022/12/15 14:57:12;;;;;;;24.00;12.20;;;0.30;99.90;;;;;;4971298;28;20227;-62
2022/12/15 14:59:41;;;;;;;20.25;10.57;;;0.30;99.90;;;;;;4971686;28;20715;-61
2022/12/15 15:02:14;;;;;;;23.63;10.30;;;0.30;99.90;;;;;;4970946;28;20207;-61
2022/12/15 15:04:41;;;;;;;20.90;11.45;;;0.30;99.90;;;;;;4971769;28;20204;-61
2022/12/15 15:07:16;;;;;;;15.10;8.40;;;0.30;99.90;;;;;;4971442;28;20220;-61
2022/12/15 15:09:45;;;;;;;19.15;10.43;;;0.20;99.90;;;;;;4972419;28;20664;-61
2022/12/15 15:12:16;;;;;;;22.20;11.50;;;0.20;99.90;;;;;;4971292;28;20215;-61
2022/12/15 15:14:46;;;;;;;15.80;9.73;;;0.20;99.90;;;;;;4972282;28;20203;-61
2022/12/15 15:17:21;;;;;;;14.50;8.60;;;0.20;99.90;;;;;;4971831;28;20668;-62